DJU weather

Djúpivogur Airport
Djúpivogur, Eastern Region, Iceland

Public forecast

Using degrees Celsius for public forecast. Weather courtesy of forecast.io.

Closest aviation weather report (METAR) to Djúpivogur Airport

Report is more than 6 hours old.

Closest report is Hornafjörður Airport, 32.2 nm (59.6 km) SW. Retrieved 2020/07/01 19:00 UTC (10 hours ago):

BIHN 011900Z 17004KT 9999 FEW030 SCT050 12/08 Q1010

Closest aviation forecast (TAF) to Djúpivogur Airport

Closest forecast is Egilsstaðir Airport, 38.5 nm (71.3 km) N. Retrieved 2020-07-02 03:06 UTC (2 hours ago):

TAF BIEG 020105Z 0203/0303 02004KT 9999 SCT050 TX11/0215Z TN04/0205Z PROB40 TEMPO 0203/0207 2000 BR OVC003